Denmark, Indiana
Current Conditions -  °F | °C
As of 7:53 AM on Friday 31 Oct 2014 (Local Time) from KBMG Reporting Station
Overcast Overcast  
Wind Chill: 44°   Ceiling: 5500
Heat Index: 44°   Visibility: 10mi
Dew Point: 41°   Wind: 3mph
Humidity: 89%   Direction: 310°NW
Pressure: 30.01"   Gusts: NA
Location:  39.2488°N, 86.9879°W
Report Text: KBMG 311153Z 31003KT 10SM SCT042 OVC055 07/05 A3001 RMK AO2 SLP162 70001 T00670050 10078 20050 56000
Loading
Personal Weather Stations






























Interactive Weather Map
Tropical Storm Tracking
New forecast layout! Learn more

10-Day Weather Forecast

Advertisements
Track Severe Weather on mobile